Time;durP1;ratioP1;P1;durP2;ratioP2;P2;SDS_P1;SDS_P2;PMS_P1;PMS_P2;Temp;Humidity;BMP_temperature;BMP_pressure;BME280_temperature;BME280_humidity;BME280_pressure;Samples;Min_cycle;Max_cycle;Signal;HPM_P1;HPM_P2
2023/11/11 00:01:37;;;;;;;8.05;2.17;;;8.20;99.90;;;;;;5008956;28;20030;-57
2023/11/11 00:04:02;;;;;;;5.28;1.77;;;8.20;99.90;;;;;;5004515;28;20396;-57
2023/11/11 00:06:28;;;;;;;8.18;2.00;;;8.10;99.90;;;;;;5006744;28;20026;-57
2023/11/11 00:08:56;;;;;;;11.70;2.00;;;8.10;99.90;;;;;;5009284;28;20033;-57
2023/11/11 00:11:21;;;;;;;6.78;1.77;;;8.10;99.90;;;;;;5009459;28;20029;-57
2023/11/11 00:13:47;;;;;;;4.22;1.67;;;8.10;99.90;;;;;;5009154;28;20432;-57
2023/11/11 00:16:13;;;;;;;6.75;1.50;;;8.10;99.90;;;;;;5008899;28;20033;-57
2023/11/11 00:18:38;;;;;;;3.97;1.67;;;8.10;99.90;;;;;;5009203;28;20057;-57
2023/11/11 00:21:04;;;;;;;4.57;1.60;;;8.10;99.90;;;;;;5009285;28;20391;-57
2023/11/11 00:23:35;;;;;;;3.03;1.30;;;8.10;99.90;;;;;;5009063;28;20030;-57
2023/11/11 00:26:01;;;;;;;3.92;1.70;;;8.10;99.90;;;;;;5008735;28;20036;-57
2023/11/11 00:28:28;;;;;;;12.68;2.28;;;8.10;99.90;;;;;;5008828;28;20123;-57
2023/11/11 00:30:54;;;;;;;3.78;1.55;;;8.10;99.90;;;;;;5009244;28;20114;-57
2023/11/11 00:33:20;;;;;;;5.32;1.42;;;8.10;99.90;;;;;;5009040;28;20088;-57
2023/11/11 00:35:45;;;;;;;4.38;1.70;;;8.10;99.90;;;;;;5008510;28;20507;-58
2023/11/11 00:38:11;;;;;;;7.32;1.65;;;8.10;99.90;;;;;;5009097;28;20388;-57
2023/11/11 00:40:40;;;;;;;3.60;1.52;;;8.10;99.90;;;;;;5009119;28;20029;-57
2023/11/11 00:43:07;;;;;;;5.72;1.52;;;8.10;99.90;;;;;;5009395;28;20018;-57
2023/11/11 00:45:33;;;;;;;8.50;1.52;;;8.10;99.90;;;;;;5008456;28;20030;-57
2023/11/11 00:48:00;;;;;;;6.22;1.80;;;8.10;99.90;;;;;;5009241;28;20024;-57
2023/11/11 00:50:26;;;;;;;7.28;2.05;;;8.10;99.90;;;;;;5005138;28;20430;-57
2023/11/11 00:52:52;;;;;;;7.75;2.28;;;8.10;99.90;;;;;;4989175;28;20062;-57
2023/11/11 00:55:17;;;;;;;2.33;1.95;;;8.10;99.90;;;;;;5000371;28;20117;-57
2023/11/11 00:57:44;;;;;;;7.07;1.75;;;8.10;99.90;;;;;;5000333;28;20383;-57
2023/11/11 01:00:10;;;;;;;5.38;1.75;;;8.10;99.90;;;;;;5008498;28;20029;-57
2023/11/11 01:02:36;;;;;;;7.28;1.65;;;8.10;99.90;;;;;;5008398;28;20114;-57
2023/11/11 01:05:02;;;;;;;9.38;2.38;;;8.10;99.90;;;;;;5007721;28;20033;-57
2023/11/11 01:07:28;;;;;;;2.70;1.23;;;8.10;99.90;;;;;;5008307;28;20375;-57
2023/11/11 01:09:54;;;;;;;4.28;1.50;;;8.00;99.90;;;;;;5008498;28;20109;-57
2023/11/11 01:12:22;;;;;;;2.95;1.35;;;8.10;99.90;;;;;;5008535;28;20053;-57
2023/11/11 01:14:48;;;;;;;4.07;1.75;;;8.10;99.90;;;;;;5007868;28;20116;-57
2023/11/11 01:17:14;;;;;;;4.82;1.70;;;8.10;99.90;;;;;;5003320;28;20095;-57
2023/11/11 01:19:40;;;;;;;4.05;1.52;;;8.00;99.90;;;;;;5007732;28;20042;-57
2023/11/11 01:22:06;;;;;;;4.53;1.40;;;8.10;99.90;;;;;;5008310;28;20042;-57
2023/11/11 01:24:31;;;;;;;5.32;2.25;;;8.10;99.90;;;;;;5005141;28;20301;-57
2023/11/11 01:26:57;;;;;;;4.38;1.80;;;8.00;99.90;;;;;;5007619;28;20037;-57
2023/11/11 01:29:22;;;;;;;2.45;1.30;;;8.00;99.90;;;;;;5008339;28;20335;-57
2023/11/11 01:31:48;;;;;;;7.85;1.85;;;8.10;99.90;;;;;;5008133;28;20152;-57
2023/11/11 01:34:14;;;;;;;4.57;1.58;;;8.00;99.90;;;;;;5008086;28;20047;-57
2023/11/11 01:36:39;;;;;;;9.13;1.95;;;8.00;99.90;;;;;;5007838;28;20034;-57
2023/11/11 01:39:06;;;;;;;14.57;2.85;;;8.00;99.90;;;;;;5008282;28;20022;-57
2023/11/11 01:41:32;;;;;;;5.10;1.42;;;8.00;99.90;;;;;;5000392;28;20018;-57
2023/11/11 01:43:57;;;;;;;4.43;1.48;;;8.00;99.90;;;;;;5008145;28;20033;-57
2023/11/11 01:46:23;;;;;;;4.70;1.80;;;8.00;99.90;;;;;;5007950;28;20021;-57
2023/11/11 01:48:49;;;;;;;4.03;1.80;;;8.00;99.90;;;;;;5008412;28;20395;-57
2023/11/11 01:51:15;;;;;;;5.32;1.75;;;7.90;99.90;;;;;;5008365;28;20017;-57
2023/11/11 01:53:41;;;;;;;2.42;1.23;;;7.90;99.90;;;;;;5007816;28;20500;-57
2023/11/11 01:56:09;;;;;;;3.70;1.65;;;7.90;99.90;;;;;;5007735;28;20146;-57
2023/11/11 01:58:38;;;;;;;6.45;1.63;;;7.90;99.90;;;;;;5007928;28;20040;-57
2023/11/11 02:01:05;;;;;;;5.40;1.60;;;7.90;99.90;;;;;;5003186;28;20077;-57
2023/11/11 02:03:34;;;;;;;2.72;1.63;;;7.90;99.90;;;;;;5000088;28;20019;-57
2023/11/11 02:06:01;;;;;;;3.90;1.50;;;8.00;99.90;;;;;;5000848;28;20015;-57
2023/11/11 02:08:31;;;;;;;5.30;2.60;;;7.90;99.90;;;;;;4999430;28;20086;-57
2023/11/11 02:11:01;;;;;;;6.82;1.48;;;7.90;99.90;;;;;;5002135;28;20026;-57
2023/11/11 02:13:30;;;;;;;3.95;1.58;;;8.00;99.90;;;;;;5004578;28;20026;-57
2023/11/11 02:15:56;;;;;;;6.18;2.03;;;8.00;99.90;;;;;;5001900;28;20498;-57
2023/11/11 02:18:22;;;;;;;7.00;1.70;;;7.90;99.90;;;;;;4995046;28;20057;-57
2023/11/11 02:20:49;;;;;;;11.07;2.30;;;7.90;99.90;;;;;;5001704;28;20049;-57
2023/11/11 02:23:16;;;;;;;5.13;1.65;;;7.90;99.90;;;;;;5007006;28;20022;-57
2023/11/11 02:25:42;;;;;;;6.50;1.73;;;7.90;99.90;;;;;;5010713;28;20226;-58
2023/11/11 02:28:07;;;;;;;4.75;1.95;;;7.90;99.90;;;;;;5011370;28;20022;-57
2023/11/11 02:30:33;;;;;;;3.50;1.85;;;7.90;99.90;;;;;;5011090;28;20041;-58
2023/11/11 02:32:59;;;;;;;7.15;1.80;;;7.90;99.90;;;;;;5010896;28;20030;-57
2023/11/11 02:35:25;;;;;;;3.70;1.60;;;7.90;99.90;;;;;;5010943;28;20486;-58
2023/11/11 02:37:50;;;;;;;2.65;1.13;;;7.90;99.90;;;;;;5010438;28;20030;-57
2023/11/11 02:40:16;;;;;;;3.88;1.30;;;7.90;99.90;;;;;;5010918;28;20092;-57
2023/11/11 02:42:42;;;;;;;4.88;1.25;;;7.90;99.90;;;;;;5009447;28;20072;-57
2023/11/11 02:45:08;;;;;;;7.68;1.80;;;7.80;99.90;;;;;;5009252;28;20036;-58
2023/11/11 02:47:34;;;;;;;6.43;1.75;;;7.80;99.90;;;;;;5010866;28;20097;-58
2023/11/11 02:50:00;;;;;;;3.03;1.90;;;7.80;99.90;;;;;;5010714;28;20376;-58
2023/11/11 02:52:26;;;;;;;6.40;1.70;;;7.90;99.90;;;;;;5010668;28;20038;-57
2023/11/11 02:54:51;;;;;;;4.80;1.70;;;7.90;99.90;;;;;;5010132;28;20088;-57
2023/11/11 02:57:17;;;;;;;4.03;1.75;;;7.90;99.90;;;;;;5010128;28;20057;-58
2023/11/11 02:59:43;;;;;;;6.90;2.35;;;7.90;99.90;;;;;;5010423;28;20022;-58
2023/11/11 03:02:11;;;;;;;4.13;1.40;;;7.90;99.90;;;;;;5001728;28;20030;-56
2023/11/11 03:04:39;;;;;;;5.05;2.03;;;7.90;99.90;;;;;;5008493;28;20029;-58
2023/11/11 03:07:06;;;;;;;5.53;1.75;;;7.90;99.90;;;;;;5005295;28;20022;-58
2023/11/11 03:09:32;;;;;;;2.67;1.60;;;7.90;99.90;;;;;;5009058;28;20049;-58
2023/11/11 03:12:01;;;;;;;3.83;1.40;;;7.90;99.90;;;;;;5010397;28;20029;-58
2023/11/11 03:14:26;;;;;;;6.50;1.60;;;7.90;99.90;;;;;;5008900;28;20026;-58
2023/11/11 03:16:52;;;;;;;5.38;1.73;;;7.80;99.90;;;;;;5009877;28;20187;-58
2023/11/11 03:19:18;;;;;;;2.83;1.58;;;7.90;99.90;;;;;;5010018;28;20061;-57
2023/11/11 03:21:43;;;;;;;8.30;1.70;;;7.80;99.90;;;;;;5010024;28;20037;-58
2023/11/11 03:24:09;;;;;;;4.57;1.60;;;7.70;99.90;;;;;;5010147;28;20044;-58
2023/11/11 03:26:34;;;;;;;3.55;1.70;;;7.70;99.90;;;;;;5009428;28;20018;-58
2023/11/11 03:29:00;;;;;;;2.67;1.55;;;7.70;99.90;;;;;;5010083;28;20439;-58
2023/11/11 03:31:26;;;;;;;5.70;1.80;;;7.60;99.90;;;;;;5001862;28;20045;-58
2023/11/11 03:33:51;;;;;;;3.72;1.55;;;7.60;99.90;;;;;;5009710;28;20052;-58
2023/11/11 03:36:17;;;;;;;5.82;2.05;;;7.60;99.90;;;;;;5009393;28;20030;-58
2023/11/11 03:38:43;;;;;;;5.55;1.50;;;7.60;99.90;;;;;;5009888;28;20026;-58
2023/11/11 03:41:08;;;;;;;6.03;1.77;;;7.60;99.90;;;;;;5009749;28;20026;-58
2023/11/11 03:43:38;;;;;;;4.30;1.50;;;7.60;99.90;;;;;;5009750;28;20060;-58
2023/11/11 03:46:04;;;;;;;7.47;2.53;;;7.60;99.90;;;;;;5007963;28;20048;-58
2023/11/11 03:48:30;;;;;;;2.92;1.30;;;7.60;99.90;;;;;;5009875;28;20191;-58
2023/11/11 03:50:56;;;;;;;4.32;1.70;;;7.60;99.90;;;;;;5005263;28;20031;-58
2023/11/11 03:53:22;;;;;;;4.28;1.63;;;7.60;99.90;;;;;;5006779;28;20041;-58
2023/11/11 03:55:48;;;;;;;4.35;1.77;;;7.60;99.90;;;;;;5009012;28;20040;-58
2023/11/11 03:58:14;;;;;;;4.13;1.42;;;7.60;99.90;;;;;;5009302;28;20021;-58
2023/11/11 04:00:43;;;;;;;6.88;1.60;;;7.50;99.90;;;;;;5001218;28;20034;-58
2023/11/11 04:03:09;;;;;;;3.70;1.85;;;7.40;99.90;;;;;;5009364;28;20583;-57
2023/11/11 04:05:34;;;;;;;2.97;1.38;;;7.40;99.90;;;;;;5009220;28;20305;-58
2023/11/11 04:08:00;;;;;;;4.60;1.95;;;7.40;99.90;;;;;;5009654;28;20113;-58
2023/11/11 04:10:25;;;;;;;2.70;1.20;;;7.40;99.90;;;;;;5009416;28;20372;-58
2023/11/11 04:12:51;;;;;;;6.32;1.50;;;7.40;99.90;;;;;;5009520;28;20052;-58
2023/11/11 04:15:16;;;;;;;3.45;1.30;;;7.40;99.90;;;;;;5009407;28;20030;-58
2023/11/11 04:17:43;;;;;;;7.90;2.33;;;7.40;99.90;;;;;;5009155;28;20033;-58
2023/11/11 04:20:12;;;;;;;5.30;1.77;;;7.40;99.90;;;;;;5009385;28;20152;-57
2023/11/11 04:22:38;;;;;;;4.63;1.65;;;7.40;99.90;;;;;;5008972;28;20026;-58
2023/11/11 04:25:09;;;;;;;2.65;1.30;;;7.50;99.90;;;;;;5008635;28;20026;-58
2023/11/11 04:27:35;;;;;;;3.20;1.52;;;7.50;99.90;;;;;;5009382;28;20189;-58
2023/11/11 04:30:06;;;;;;;4.75;1.63;;;7.50;99.90;;;;;;5009614;28;20032;-58
2023/11/11 04:32:35;;;;;;;1.90;1.50;;;7.50;99.90;;;;;;5006292;28;20462;-58
2023/11/11 04:35:01;;;;;;;3.80;2.00;;;7.60;99.90;;;;;;5008911;28;20322;-58
2023/11/11 04:37:27;;;;;;;3.17;1.75;;;7.60;99.90;;;;;;5005858;28;20568;-58
2023/11/11 04:39:57;;;;;;;5.90;1.67;;;7.60;99.90;;;;;;5008803;28;20399;-58
2023/11/11 04:42:24;;;;;;;7.13;1.73;;;7.60;99.90;;;;;;5008799;28;20487;-58
2023/11/11 04:44:51;;;;;;;5.43;1.90;;;7.60;99.90;;;;;;5008757;28;20044;-59
2023/11/11 04:47:18;;;;;;;5.07;1.63;;;7.60;99.90;;;;;;5008579;28;20172;-58
2023/11/11 04:49:44;;;;;;;5.20;1.70;;;7.60;99.90;;;;;;5008635;28;20078;-58
2023/11/11 04:52:10;;;;;;;3.95;1.70;;;7.60;99.90;;;;;;5008674;28;20028;-58
2023/11/11 04:54:35;;;;;;;8.23;1.67;;;7.60;99.90;;;;;;5006112;28;20030;-58
2023/11/11 04:57:01;;;;;;;5.57;2.13;;;7.60;99.90;;;;;;5008216;28;20030;-58
2023/11/11 04:59:27;;;;;;;5.38;1.50;;;7.60;99.90;;;;;;5008427;28;20030;-58
2023/11/11 05:01:54;;;;;;;8.35;2.08;;;7.50;99.90;;;;;;5008780;28;20034;-58
2023/11/11 05:04:20;;;;;;;7.15;2.00;;;7.60;99.90;;;;;;5008634;28;20049;-58
2023/11/11 05:06:46;;;;;;;8.35;2.05;;;7.60;99.90;;;;;;5003573;28;20538;-58
2023/11/11 05:09:11;;;;;;;3.83;1.65;;;7.60;99.90;;;;;;4999549;28;20054;-58
2023/11/11 05:11:38;;;;;;;6.13;1.80;;;7.60;99.90;;;;;;5006342;28;20034;-58
2023/11/11 05:14:08;;;;;;;4.18;1.75;;;7.60;99.90;;;;;;5008330;28;20065;-58
2023/11/11 05:16:40;;;;;;;10.10;3.45;;;7.60;99.90;;;;;;5022361;28;20042;-58
2023/11/11 05:19:09;;;;;;;9.10;3.63;;;7.60;99.90;;;;;;5008297;28;20065;-57
2023/11/11 05:21:35;;;;;;;17.80;5.70;;;7.60;99.90;;;;;;5008239;28;20046;-57
2023/11/11 05:24:01;;;;;;;21.98;7.15;;;7.60;99.90;;;;;;5008055;28;20054;-57
2023/11/11 05:26:30;;;;;;;17.13;7.63;;;7.60;99.90;;;;;;5007662;28;20382;-57
2023/11/11 05:28:57;;;;;;;23.95;7.97;;;7.60;99.90;;;;;;5008386;28;20021;-57
2023/11/11 05:31:23;;;;;;;14.77;4.82;;;7.70;99.90;;;;;;5008611;28;20026;-57
2023/11/11 05:33:50;;;;;;;8.13;2.78;;;7.70;99.90;;;;;;5008443;28;20049;-57
2023/11/11 05:36:16;;;;;;;9.30;3.08;;;7.70;99.90;;;;;;5007907;28;20099;-57
2023/11/11 05:38:45;;;;;;;9.30;2.50;;;7.70;99.90;;;;;;5012172;28;20471;-57
2023/11/11 05:41:11;;;;;;;4.97;2.20;;;7.70;99.90;;;;;;5012358;28;20029;-58
2023/11/11 05:43:36;;;;;;;4.57;2.00;;;7.60;99.90;;;;;;5012026;28;20487;-57
2023/11/11 05:46:02;;;;;;;3.80;1.77;;;7.60;99.90;;;;;;5011792;28;20447;-58
2023/11/11 05:48:28;;;;;;;7.07;2.60;;;7.60;99.90;;;;;;5012261;28;20099;-57
2023/11/11 05:50:53;;;;;;;4.35;1.90;;;7.60;99.90;;;;;;5012362;28;20340;-58
2023/11/11 05:53:19;;;;;;;3.97;2.10;;;7.60;99.90;;;;;;5011780;28;20254;-57
2023/11/11 05:55:44;;;;;;;4.80;1.83;;;7.60;99.90;;;;;;5006846;28;20037;-57
2023/11/11 05:58:10;;;;;;;3.08;1.90;;;7.60;99.90;;;;;;5007960;28;20030;-57
2023/11/11 06:00:39;;;;;;;4.75;2.40;;;7.60;99.90;;;;;;5009553;28;20040;-58
2023/11/11 06:03:05;;;;;;;3.63;1.98;;;7.70;99.90;;;;;;5008957;28;20049;-58
2023/11/11 06:05:34;;;;;;;3.60;2.00;;;7.70;99.90;;;;;;5010839;28;20022;-58
2023/11/11 06:08:01;;;;;;;5.78;2.40;;;7.60;99.90;;;;;;5011722;28;20431;-57
2023/11/11 06:10:26;;;;;;;4.45;2.08;;;7.60;99.90;;;;;;5007883;28;20661;-58
2023/11/11 06:12:52;;;;;;;4.25;2.97;;;7.60;99.90;;;;;;5011455;28;20076;-57
2023/11/11 06:15:18;;;;;;;5.68;2.42;;;7.60;99.90;;;;;;5002800;28;20384;-58
2023/11/11 06:17:44;;;;;;;3.45;1.88;;;7.60;99.90;;;;;;5011501;28;20026;-57
2023/11/11 06:20:10;;;;;;;5.07;2.00;;;7.60;99.90;;;;;;5011342;28;20081;-58
2023/11/11 06:22:35;;;;;;;6.03;2.42;;;7.60;99.90;;;;;;5007294;28;20033;-57
2023/11/11 06:25:01;;;;;;;5.40;2.28;;;7.60;99.90;;;;;;4999227;28;20049;-58
2023/11/11 06:27:27;;;;;;;5.93;2.30;;;7.50;99.90;;;;;;5004825;28;20018;-58
2023/11/11 06:29:52;;;;;;;6.10;2.45;;;7.60;99.90;;;;;;4999675;28;20034;-57
2023/11/11 06:32:18;;;;;;;5.53;2.33;;;7.50;99.90;;;;;;5007669;28;20251;-57
2023/11/11 06:34:45;;;;;;;6.95;2.50;;;7.50;99.90;;;;;;5001217;28;20032;-58
2023/11/11 06:37:11;;;;;;;6.32;2.17;;;7.50;99.90;;;;;;5006179;28;20022;-57
2023/11/11 06:39:36;;;;;;;4.95;2.78;;;7.50;99.90;;;;;;5009894;28;20030;-57
2023/11/11 06:42:02;;;;;;;12.55;2.75;;;7.50;99.90;;;;;;5010755;28;20095;-58
2023/11/11 06:44:28;;;;;;;8.18;2.67;;;7.50;99.90;;;;;;5010597;28;20037;-57
2023/11/11 06:46:53;;;;;;;7.28;2.40;;;7.50;99.90;;;;;;5010562;28;20040;-56
2023/11/11 06:49:19;;;;;;;10.32;2.67;;;7.40;99.90;;;;;;5010422;28;20026;-56
2023/11/11 06:51:44;;;;;;;6.82;2.33;;;7.40;99.90;;;;;;5010625;28;20129;-56
2023/11/11 06:54:10;;;;;;;5.32;1.83;;;7.40;99.90;;;;;;5010682;28;20136;-55
2023/11/11 06:56:36;;;;;;;5.22;2.30;;;7.40;99.90;;;;;;5009924;28;20069;-56
2023/11/11 06:59:07;;;;;;;5.50;2.42;;;7.40;99.90;;;;;;5010320;28;20049;-57
2023/11/11 07:01:33;;;;;;;5.50;2.75;;;7.30;99.90;;;;;;5010011;28;20049;-57
2023/11/11 07:04:00;;;;;;;7.60;2.50;;;7.30;99.90;;;;;;5010346;28;20018;-56
2023/11/11 07:06:26;;;;;;;8.93;2.15;;;7.30;99.90;;;;;;5010025;28;20025;-56
2023/11/11 07:08:52;;;;;;;6.10;2.03;;;7.20;99.90;;;;;;5010631;28;20034;-57
2023/11/11 07:11:19;;;;;;;4.10;1.55;;;7.20;99.90;;;;;;5010331;28;20160;-57
2023/11/11 07:13:46;;;;;;;5.75;2.45;;;7.20;99.90;;;;;;5010290;28;20029;-57
2023/11/11 07:16:14;;;;;;;2.38;1.60;;;7.20;99.90;;;;;;5009823;28;20037;-57
2023/11/11 07:18:41;;;;;;;5.13;1.40;;;7.10;99.90;;;;;;5008211;28;20033;-57
2023/11/11 07:21:06;;;;;;;5.25;1.58;;;7.10;99.90;;;;;;5001935;28;20523;-57
2023/11/11 07:23:32;;;;;;;2.80;1.70;;;7.10;99.90;;;;;;4998247;28;20043;-56
2023/11/11 07:25:58;;;;;;;2.38;1.38;;;7.10;99.90;;;;;;5003699;28;20018;-57
2023/11/11 07:28:26;;;;;;;3.20;1.65;;;7.10;99.90;;;;;;5010132;28;20029;-57
2023/11/11 07:30:51;;;;;;;3.67;1.75;;;6.90;99.90;;;;;;5010324;28;20482;-57
2023/11/11 07:33:17;;;;;;;3.70;1.42;;;7.00;99.90;;;;;;5010300;28;20061;-57
2023/11/11 07:35:43;;;;;;;4.95;1.40;;;6.90;99.90;;;;;;5008945;28;20438;-56
2023/11/11 07:38:09;;;;;;;2.35;1.67;;;6.90;99.90;;;;;;5008203;28;20403;-57
2023/11/11 07:40:34;;;;;;;3.78;2.25;;;6.90;99.90;;;;;;5008554;28;20032;-57
2023/11/11 07:43:00;;;;;;;5.35;1.80;;;6.80;99.90;;;;;;5008088;28;20491;-57
2023/11/11 07:45:26;;;;;;;2.28;1.50;;;6.90;99.90;;;;;;5007482;28;20045;-57
2023/11/11 07:47:52;;;;;;;4.80;1.70;;;6.90;99.90;;;;;;5008058;28;20033;-56
2023/11/11 07:50:19;;;;;;;2.03;1.60;;;6.90;99.90;;;;;;5000001;28;20034;-56
2023/11/11 07:52:45;;;;;;;4.22;2.03;;;6.90;99.90;;;;;;5001770;28;20018;-57
2023/11/11 07:55:10;;;;;;;3.88;2.15;;;6.80;99.90;;;;;;5004534;28;20511;-57
2023/11/11 07:57:36;;;;;;;3.80;2.10;;;6.80;99.90;;;;;;5008717;28;20456;-57
2023/11/11 08:00:06;;;;;;;7.47;2.60;;;6.80;99.90;;;;;;5006090;28;20061;-57
2023/11/11 08:02:32;;;;;;;3.78;2.80;;;6.80;99.90;;;;;;5006439;28;20476;-57
2023/11/11 08:04:57;;;;;;;3.40;2.05;;;6.80;99.90;;;;;;5009276;28;20064;-57
2023/11/11 08:07:23;;;;;;;5.03;2.30;;;6.80;99.90;;;;;;5008427;28;20418;-56
2023/11/11 08:09:50;;;;;;;4.50;2.00;;;6.80;99.90;;;;;;5009555;28;20040;-56
2023/11/11 08:12:17;;;;;;;3.90;2.25;;;6.80;99.90;;;;;;5009750;28;20072;-57
2023/11/11 08:14:42;;;;;;;3.85;1.77;;;6.80;99.90;;;;;;5008425;28;20423;-57
2023/11/11 08:17:08;;;;;;;3.42;1.98;;;6.80;99.90;;;;;;5009101;28;20046;-57
2023/11/11 08:19:33;;;;;;;5.50;1.80;;;6.80;99.90;;;;;;5009098;28;20034;-56
2023/11/11 08:21:59;;;;;;;3.85;1.75;;;6.80;99.90;;;;;;5009300;28;20077;-56
2023/11/11 08:24:24;;;;;;;2.90;2.30;;;6.80;99.90;;;;;;5008869;28;20467;-56
2023/11/11 08:26:50;;;;;;;4.65;1.90;;;6.80;99.90;;;;;;5008767;28;20101;-56
2023/11/11 08:29:16;;;;;;;3.10;1.73;;;6.80;99.90;;;;;;5004617;28;20181;-56
2023/11/11 08:31:42;;;;;;;3.47;2.25;;;6.80;99.90;;;;;;5006912;28;20133;-56
2023/11/11 08:34:08;;;;;;;2.53;1.67;;;6.80;99.90;;;;;;5008561;28;20088;-57
2023/11/11 08:36:35;;;;;;;2.58;2.03;;;6.90;99.90;;;;;;4996902;28;20026;-57
2023/11/11 08:39:00;;;;;;;3.28;1.42;;;6.90;99.90;;;;;;5010062;28;20032;-57
2023/11/11 08:41:27;;;;;;;2.83;1.60;;;6.90;99.90;;;;;;5024586;28;20026;-57
2023/11/11 08:43:53;;;;;;;1.77;1.35;;;6.90;99.90;;;;;;5028213;28;20053;-57
2023/11/11 08:46:18;;;;;;;3.40;1.60;;;6.90;99.90;;;;;;5028163;28;20103;-57
2023/11/11 08:48:44;;;;;;;2.38;1.58;;;6.90;99.90;;;;;;5022916;28;20475;-57
2023/11/11 08:51:12;;;;;;;1.77;1.30;;;6.90;99.90;;;;;;5007329;28;20048;-57
2023/11/11 08:53:38;;;;;;;2.20;2.00;;;6.90;99.90;;;;;;5006347;28;20034;-57
2023/11/11 08:56:04;;;;;;;2.92;1.55;;;6.90;99.90;;;;;;5008147;28;20030;-57
2023/11/11 08:58:30;;;;;;;3.05;1.27;;;6.90;99.90;;;;;;5008591;28;20557;-57
2023/11/11 09:00:56;;;;;;;1.75;1.60;;;6.90;99.90;;;;;;5008874;28;20026;-56
2023/11/11 09:03:22;;;;;;;1.95;1.10;;;7.00;99.90;;;;;;5000074;28;20465;-57
2023/11/11 09:05:47;;;;;;;1.23;1.10;;;6.90;99.90;;;;;;4988407;28;20138;-56
2023/11/11 09:08:13;;;;;;;1.10;1.00;;;7.00;99.90;;;;;;4988661;28;20026;-56
2023/11/11 09:10:40;;;;;;;1.52;1.05;;;6.90;99.90;;;;;;4988458;28;20113;-56
2023/11/11 09:13:10;;;;;;;2.13;1.30;;;6.90;99.90;;;;;;4997806;28;20031;-56
2023/11/11 09:15:37;;;;;;;1.90;1.20;;;6.90;99.90;;;;;;5006586;28;20243;-56
2023/11/11 09:18:03;;;;;;;1.48;1.25;;;6.90;99.90;;;;;;5008114;28;20056;-57
2023/11/11 09:20:29;;;;;;;1.30;1.20;;;6.80;99.90;;;;;;5008101;28;20196;-56
2023/11/11 09:22:55;;;;;;;1.60;1.30;;;6.80;99.90;;;;;;5003477;28;20113;-57
2023/11/11 09:25:21;;;;;;;3.08;1.23;;;6.80;99.90;;;;;;5004561;28;20044;-57
2023/11/11 09:27:47;;;;;;;1.50;1.33;;;6.80;99.90;;;;;;5008110;28;20022;-57
2023/11/11 09:30:13;;;;;;;2.35;1.60;;;6.80;99.90;;;;;;5008389;28;20511;-57
2023/11/11 09:32:39;;;;;;;3.20;1.73;;;6.80;99.90;;;;;;5008450;28;20219;-57
2023/11/11 09:35:05;;;;;;;3.28;2.25;;;6.80;99.90;;;;;;5007496;28;20033;-57
2023/11/11 09:37:30;;;;;;;3.05;2.55;;;6.80;99.90;;;;;;5008154;28;20030;-57
2023/11/11 09:39:56;;;;;;;2.22;2.03;;;6.80;99.90;;;;;;5008109;28;20435;-57
2023/11/11 09:42:22;;;;;;;3.53;2.58;;;6.80;99.90;;;;;;5007608;28;20033;-57
2023/11/11 09:44:47;;;;;;;6.05;3.92;;;6.80;99.90;;;;;;5002842;28;20109;-57
2023/11/11 09:47:16;;;;;;;4.95;3.35;;;6.90;99.90;;;;;;5003575;28;20022;-57
2023/11/11 09:49:42;;;;;;;8.75;4.15;;;6.90;99.90;;;;;;5007935;28;20109;-57
2023/11/11 09:52:11;;;;;;;8.25;4.53;;;6.90;99.90;;;;;;5008270;28;20036;-57
2023/11/11 09:54:40;;;;;;;7.95;5.40;;;7.00;99.90;;;;;;5007987;28;20030;-57
2023/11/11 09:57:08;;;;;;;11.38;6.40;;;7.00;99.90;;;;;;5007805;28;20022;-57
2023/11/11 09:59:34;;;;;;;11.77;6.93;;;7.00;99.90;;;;;;5008194;28;20482;-57
2023/11/11 10:02:01;;;;;;;9.85;6.88;;;7.00;99.90;;;;;;5008214;28;20030;-57
2023/11/11 10:04:28;;;;;;;13.20;7.47;;;7.00;99.90;;;;;;5008186;28;20022;-57
2023/11/11 10:06:53;;;;;;;10.02;7.22;;;7.00;99.90;;;;;;5007553;28;20034;-57
2023/11/11 10:09:19;;;;;;;13.05;7.30;;;7.10;99.90;;;;;;5007811;28;20110;-57
2023/11/11 10:11:47;;;;;;;13.50;7.72;;;7.10;99.90;;;;;;5007662;28;20531;-57
2023/11/11 10:14:16;;;;;;;10.85;7.47;;;7.20;99.90;;;;;;5007789;28;20521;-57
2023/11/11 10:16:42;;;;;;;11.77;7.63;;;7.30;99.90;;;;;;5006145;28;20507;-57
2023/11/11 10:19:12;;;;;;;14.02;8.18;;;7.30;99.90;;;;;;5007866;28;20041;-57
2023/11/11 10:21:39;;;;;;;13.00;8.90;;;7.30;99.90;;;;;;5008026;28;20113;-57
2023/11/11 10:24:08;;;;;;;12.02;8.10;;;7.40;99.90;;;;;;5010318;28;20060;-57
2023/11/11 10:26:34;;;;;;;12.10;7.90;;;7.40;99.90;;;;;;5010867;28;20026;-57
2023/11/11 10:29:04;;;;;;;12.18;7.88;;;7.50;99.90;;;;;;5011613;28;20037;-57
2023/11/11 10:31:36;;;;;;;10.68;7.43;;;7.50;99.90;;;;;;5011389;28;20547;-57
2023/11/11 10:34:02;;;;;;;11.13;7.25;;;7.50;99.90;;;;;;5011467;28;20084;-57
2023/11/11 10:36:37;;;;;;;13.93;7.38;;;7.50;99.90;;;;;;5010945;28;20049;-57
2023/11/11 10:39:04;;;;;;;11.38;7.15;;;7.60;99.90;;;;;;5011222;28;20180;-57
2023/11/11 10:41:30;;;;;;;13.65;6.30;;;7.60;99.90;;;;;;5011308;28;20097;-58
2023/11/11 10:43:56;;;;;;;10.45;6.13;;;7.70;99.90;;;;;;5011247;28;20695;-57
2023/11/11 10:46:22;;;;;;;10.13;6.10;;;7.70;99.90;;;;;;5010917;28;20092;-58
2023/11/11 10:48:48;;;;;;;9.80;5.72;;;7.80;99.90;;;;;;5006542;28;20169;-57
2023/11/11 10:51:15;;;;;;;9.45;4.85;;;7.80;99.90;;;;;;5007511;28;20037;-58
2023/11/11 10:53:45;;;;;;;7.90;5.20;;;7.80;99.90;;;;;;5010737;28;20026;-57
2023/11/11 10:56:12;;;;;;;8.10;4.95;;;7.80;99.90;;;;;;5010411;28;20050;-57
2023/11/11 10:58:39;;;;;;;7.78;5.03;;;7.80;99.90;;;;;;5010697;28;20045;-57
2023/11/11 11:01:05;;;;;;;8.68;4.38;;;7.80;99.90;;;;;;5011099;28;20026;-57
2023/11/11 11:03:31;;;;;;;5.63;4.65;;;7.80;99.90;;;;;;5007562;28;20053;-57
2023/11/11 11:06:19;;;;;;;5.57;3.83;;;7.80;99.90;;;;;;5010133;28;20037;-57
2023/11/11 11:09:14;;;;;;;11.07;4.18;;;7.90;99.90;;;;;;5010353;28;20092;-57
2023/11/11 11:11:58;;;;;;;6.25;4.32;;;7.90;99.90;;;;;;5002328;28;20602;-57
2023/11/11 11:14:49;;;;;;;9.73;5.25;;;7.90;99.90;;;;;;5010232;28;20100;-58
2023/11/11 11:17:15;;;;;;;5.90;3.85;;;7.90;99.90;;;;;;5010235;28;20058;-57
2023/11/11 11:19:55;;;;;;;6.85;3.58;;;7.80;99.90;;;;;;5010095;28;20107;-57
2023/11/11 11:22:24;;;;;;;4.85;3.78;;;7.80;99.90;;;;;;5010650;28;20252;-57
2023/11/11 11:24:50;;;;;;;6.43;3.42;;;7.80;99.90;;;;;;5010432;28;20024;-57
2023/11/11 11:27:15;;;;;;;4.70;3.40;;;7.80;99.90;;;;;;5010195;28;20030;-57
2023/11/11 11:29:41;;;;;;;5.20;3.75;;;7.80;99.90;;;;;;5010741;28;20054;-57
2023/11/11 11:32:10;;;;;;;5.72;3.58;;;7.80;99.90;;;;;;5006069;28;20026;-57
2023/11/11 11:34:38;;;;;;;5.03;3.17;;;7.80;99.90;;;;;;5008639;28;20029;-57
2023/11/11 11:37:08;;;;;;;7.30;3.97;;;7.80;99.90;;;;;;5005189;28;20037;-57
2023/11/11 11:39:57;;;;;;;4.10;3.30;;;7.80;99.90;;;;;;5008681;28;20391;-57
2023/11/11 11:42:27;;;;;;;5.05;3.60;;;7.90;99.90;;;;;;5009953;28;20640;-57
2023/11/11 11:45:02;;;;;;;3.97;3.20;;;7.90;99.90;;;;;;5009283;28;20034;-57
2023/11/11 11:47:33;;;;;;;8.50;4.57;;;7.90;99.90;;;;;;5009661;28;20026;-57
2023/11/11 11:50:00;;;;;;;4.35;3.65;;;7.90;99.90;;;;;;5010059;28;20476;-57
2023/11/11 11:52:26;;;;;;;3.42;3.13;;;8.10;99.90;;;;;;5010146;28;20037;-57
2023/11/11 11:54:51;;;;;;;3.85;3.22;;;8.10;99.90;;;;;;5009436;28;20435;-57
2023/11/11 11:57:17;;;;;;;3.83;3.42;;;8.20;99.90;;;;;;5009378;28;20057;-57
2023/11/11 11:59:46;;;;;;;8.98;4.18;;;8.30;99.90;;;;;;5009274;28;20414;-57
2023/11/11 12:02:12;;;;;;;3.60;3.30;;;8.40;99.90;;;;;;5009914;28;20144;-57
2023/11/11 12:04:39;;;;;;;4.25;3.13;;;8.50;99.90;;;;;;5009287;28;20042;-57
2023/11/11 12:07:07;;;;;;;5.85;3.35;;;8.50;99.90;;;;;;5009117;28;20383;-57
2023/11/11 12:09:35;;;;;;;5.78;3.05;;;8.70;99.90;;;;;;5009159;28;20455;-57
2023/11/11 12:12:06;;;;;;;4.38;2.65;;;8.70;99.90;;;;;;5004732;28;20034;-57
2023/11/11 12:14:31;;;;;;;4.90;2.88;;;8.80;99.90;;;;;;5007267;28;20069;-57
2023/11/11 12:16:57;;;;;;;3.60;2.28;;;8.90;99.90;;;;;;5008747;28;20061;-57
2023/11/11 12:19:24;;;;;;;7.95;3.22;;;8.90;99.90;;;;;;5004820;28;20030;-57
2023/11/11 12:21:50;;;;;;;7.70;2.88;;;8.90;99.90;;;;;;5008884;28;20471;-57
2023/11/11 12:24:25;;;;;;;2.80;2.25;;;8.90;99.90;;;;;;5008991;28;20045;-57
2023/11/11 12:26:53;;;;;;;5.82;2.15;;;8.90;99.90;;;;;;5008727;28;20038;-57
2023/11/11 12:29:19;;;;;;;2.95;2.15;;;9.00;99.90;;;;;;5009175;28;20021;-57
2023/11/11 12:31:55;;;;;;;4.15;2.22;;;9.00;99.90;;;;;;5009027;28;20041;-57
2023/11/11 12:34:28;;;;;;;5.80;2.22;;;9.00;99.90;;;;;;5008943;28;20484;-57
2023/11/11 12:36:55;;;;;;;7.70;2.63;;;9.00;99.90;;;;;;5008754;28;20057;-57
2023/11/11 12:39:21;;;;;;;3.72;2.22;;;9.00;99.90;;;;;;5009375;28;20052;-57
2023/11/11 12:41:51;;;;;;;3.08;2.20;;;9.00;99.90;;;;;;5008570;28;20022;-57
2023/11/11 12:44:18;;;;;;;5.47;2.25;;;9.00;99.90;;;;;;5008880;28;20026;-57
2023/11/11 12:46:45;;;;;;;3.00;1.98;;;8.90;99.90;;;;;;5008255;28;20060;-57
2023/11/11 12:49:13;;;;;;;3.88;1.85;;;8.90;99.90;;;;;;5008626;28;20064;-57
2023/11/11 12:51:39;;;;;;;2.88;1.67;;;8.90;99.90;;;;;;5006795;28;20026;-57
2023/11/11 12:54:05;;;;;;;1.98;1.60;;;8.80;99.90;;;;;;5008542;28;20098;-57